createdAt,value
2018-09-19T00:00:44.436Z,4.87
2018-09-19T00:03:20.467Z,4.83
2018-09-19T00:05:56.436Z,5.33
2018-09-19T00:08:32.560Z,6.78
2018-09-19T00:11:08.776Z,4.80
2018-09-19T00:13:44.614Z,4.20
2018-09-19T00:16:20.627Z,4.80
2018-09-19T00:18:57.261Z,5.20
2018-09-19T00:21:34.276Z,5.23
2018-09-19T00:24:11.618Z,6.40
2018-09-19T00:26:50.457Z,6.30
2018-09-19T00:29:26.851Z,4.57
2018-09-19T00:32:02.450Z,6.60
2018-09-19T00:34:38.463Z,6.28
2018-09-19T00:37:14.630Z,6.30
2018-09-19T00:39:51.169Z,7.10
2018-09-19T00:42:27.314Z,7.53
2018-09-19T00:47:58.433Z,5.07
2018-09-19T00:50:34.418Z,4.22
2018-09-19T00:53:10.339Z,5.20
2018-09-19T00:55:46.406Z,3.70
2018-09-19T00:58:22.789Z,4.75
2018-09-19T01:00:58.883Z,6.37
2018-09-19T01:03:35.898Z,3.80
2018-09-19T01:06:12.324Z,4.30
2018-09-19T01:08:50.116Z,3.80
2018-09-19T01:11:28.233Z,5.23
2018-09-19T01:14:04.618Z,4.62
2018-09-19T01:16:40.637Z,3.40
2018-09-19T01:19:16.627Z,5.70
2018-09-19T01:21:52.661Z,3.70
2018-09-19T01:24:28.648Z,3.40
2018-09-19T01:27:04.093Z,8.00
2018-09-19T01:29:39.461Z,5.50
2018-09-19T01:32:14.643Z,3.63
2018-09-19T01:34:50.113Z,5.60
2018-09-19T01:37:26.295Z,4.67
2018-09-19T01:40:01.668Z,5.40
2018-09-19T01:45:10.496Z,5.07
2018-09-19T01:47:46.126Z,7.13
2018-09-19T01:50:21.487Z,5.80
2018-09-19T01:52:57.128Z,7.83
2018-09-19T01:55:32.658Z,10.30
2018-09-19T01:58:07.890Z,6.97
2018-09-19T02:00:43.657Z,6.92
2018-09-19T02:03:19.232Z,6.80
2018-09-19T02:05:55.089Z,6.42
2018-09-19T02:08:31.110Z,5.12
2018-09-19T02:11:07.281Z,4.83
2018-09-19T02:13:42.863Z,4.17
2018-09-19T02:16:19.241Z,4.58
2018-09-19T02:18:55.278Z,4.65
2018-09-19T02:21:31.106Z,6.10
2018-09-19T02:24:06.456Z,8.00
2018-09-19T02:26:42.193Z,5.70
2018-09-19T02:29:17.658Z,5.53
2018-09-19T02:31:53.309Z,5.40
2018-09-19T02:34:28.618Z,4.60
2018-09-19T02:37:04.157Z,4.63
2018-09-19T02:39:39.489Z,6.07
2018-09-19T02:42:14.862Z,4.17
2018-09-19T02:44:50.321Z,4.50
2018-09-19T02:47:26.221Z,5.30
2018-09-19T02:50:01.846Z,4.87
2018-09-19T02:52:37.466Z,4.77
2018-09-19T02:55:13.157Z,6.58
2018-09-19T02:57:48.492Z,4.70
2018-09-19T03:00:23.893Z,5.03
2018-09-19T03:02:59.497Z,4.37
2018-09-19T03:05:35.066Z,4.70
2018-09-19T03:08:10.525Z,6.70
2018-09-19T03:10:46.140Z,8.50
2018-09-19T03:13:22.459Z,5.00
2018-09-19T03:15:58.205Z,5.35
2018-09-19T03:18:33.864Z,4.30
2018-09-19T03:21:09.486Z,6.00
2018-09-19T03:23:44.863Z,5.65
2018-09-19T03:26:20.533Z,10.40
2018-09-19T03:28:55.893Z,5.20
2018-09-19T03:31:31.521Z,6.85
2018-09-19T03:34:06.899Z,5.83
2018-09-19T03:36:42.265Z,5.50
2018-09-19T03:39:17.737Z,7.15
2018-09-19T03:41:53.523Z,7.53
2018-09-19T03:44:28.861Z,5.85
2018-09-19T03:47:04.441Z,5.90
2018-09-19T03:49:40.147Z,5.78
2018-09-19T03:52:15.689Z,8.50
2018-09-19T03:54:51.516Z,7.27
2018-09-19T03:57:26.951Z,7.05
2018-09-19T04:00:02.716Z,6.47
2018-09-19T04:02:38.399Z,8.20
2018-09-19T04:05:14.273Z,9.38
2018-09-19T04:07:49.900Z,11.50
2018-09-19T04:10:25.273Z,8.07
2018-09-19T04:13:00.908Z,11.65
2018-09-19T04:15:36.735Z,9.00
2018-09-19T04:18:12.160Z,6.53
2018-09-19T04:20:47.693Z,7.55
2018-09-19T04:23:23.094Z,4.73
2018-09-19T04:25:58.408Z,6.00
2018-09-19T04:28:35.069Z,6.20
2018-09-19T04:31:10.653Z,6.80
2018-09-19T04:33:46.357Z,8.30
2018-09-19T04:36:21.720Z,4.13
2018-09-19T04:38:57.183Z,6.10
2018-09-19T04:41:32.716Z,4.83
2018-09-19T04:44:08.284Z,4.77
2018-09-19T04:46:44.166Z,6.53
2018-09-19T04:49:19.759Z,4.53
2018-09-19T04:51:55.711Z,3.30
2018-09-19T04:54:31.757Z,2.60
2018-09-19T04:57:07.706Z,3.73
2018-09-19T04:59:43.717Z,2.85
2018-09-19T05:02:19.552Z,3.10
2018-09-19T05:04:55.547Z,1.22
2018-09-19T05:07:31.664Z,2.87
2018-09-19T05:10:07.572Z,1.77
2018-09-19T05:12:43.713Z,3.30
2018-09-19T05:15:19.734Z,2.37
2018-09-19T05:17:55.748Z,2.77
2018-09-19T05:20:31.728Z,1.37
2018-09-19T05:23:07.899Z,1.07
2018-09-19T05:25:43.716Z,1.63
2018-09-19T05:28:20.518Z,2.75
2018-09-19T05:30:56.321Z,2.00
2018-09-19T05:33:32.345Z,1.65
2018-09-19T05:36:08.336Z,2.23
2018-09-19T05:38:44.550Z,1.98
2018-09-19T05:41:21.322Z,0.98
2018-09-19T05:43:57.252Z,0.90
2018-09-19T05:46:33.214Z,2.63
2018-09-19T05:49:09.393Z,2.33
2018-09-19T05:51:45.552Z,1.02
2018-09-19T05:54:21.611Z,0.90
2018-09-19T05:56:57.348Z,2.30
2018-09-19T05:59:33.394Z,1.30
2018-09-19T06:02:09.198Z,0.87
2018-09-19T06:04:45.391Z,0.68
2018-09-19T06:07:21.203Z,1.75
2018-09-19T06:09:57.401Z,1.07
2018-09-19T06:12:33.192Z,1.80
2018-09-19T06:15:09.567Z,0.82
2018-09-19T06:17:45.737Z,1.90
2018-09-19T06:20:21.848Z,1.00
2018-09-19T06:22:58.202Z,2.17
2018-09-19T06:25:34.229Z,1.93
2018-09-19T06:28:10.371Z,0.80
2018-09-19T06:30:46.389Z,1.75
2018-09-19T06:33:22.563Z,1.65
2018-09-19T06:35:58.386Z,0.87
2018-09-19T06:38:34.601Z,0.80
2018-09-19T06:41:10.463Z,1.30
2018-09-19T06:43:47.005Z,0.60
2018-09-19T06:46:23.481Z,1.00
2018-09-19T06:48:59.471Z,1.50
2018-09-19T06:51:35.568Z,3.05
2018-09-19T06:54:11.576Z,1.90
2018-09-19T06:56:47.578Z,4.87
2018-09-19T06:59:23.562Z,4.17
2018-09-19T07:01:59.578Z,4.35
2018-09-19T07:04:35.553Z,2.70
2018-09-19T07:07:11.577Z,3.90
2018-09-19T07:09:47.577Z,4.33
2018-09-19T07:12:23.484Z,2.67
2018-09-19T07:14:59.309Z,2.77
2018-09-19T07:17:35.550Z,2.52
2018-09-19T07:20:11.582Z,1.75
2018-09-19T07:22:47.577Z,1.82
2018-09-19T07:25:23.713Z,2.17
2018-09-19T07:27:59.585Z,2.73
2018-09-19T07:30:35.593Z,1.60
2018-09-19T07:33:11.490Z,1.80
2018-09-19T07:35:47.689Z,2.00
2018-09-19T07:38:23.483Z,3.35
2018-09-19T07:40:59.523Z,2.95
2018-09-19T07:43:35.922Z,3.02
2018-09-19T07:46:11.972Z,4.07
2018-09-19T07:48:47.935Z,1.37
2018-09-19T07:51:23.955Z,2.43
2018-09-19T07:53:59.796Z,1.70
2018-09-19T07:56:35.506Z,2.93
2018-09-19T07:59:11.928Z,2.43
2018-09-19T08:01:47.942Z,1.97
2018-09-19T08:04:23.588Z,4.27
2018-09-19T08:06:59.507Z,2.35
2018-09-19T08:09:35.590Z,3.85
2018-09-19T08:12:11.573Z,2.47
2018-09-19T08:14:47.603Z,2.10
2018-09-19T08:17:23.511Z,4.40
2018-09-19T08:19:59.775Z,2.40
2018-09-19T08:22:35.660Z,2.75
2018-09-19T08:25:11.809Z,2.62
2018-09-19T08:27:47.601Z,2.60
2018-09-19T08:30:23.606Z,1.98
2018-09-19T08:32:59.527Z,1.90
2018-09-19T08:35:35.512Z,2.45
2018-09-19T08:38:11.602Z,2.17
2018-09-19T08:40:47.477Z,2.70
2018-09-19T08:43:23.513Z,2.20
2018-09-19T08:45:59.860Z,2.85
2018-09-19T08:48:35.591Z,3.00
2018-09-19T08:51:11.526Z,1.75
2018-09-19T08:53:47.625Z,2.67
2018-09-19T08:56:23.787Z,2.42
2018-09-19T08:58:59.615Z,1.87
2018-09-19T09:01:35.617Z,4.23
2018-09-19T09:04:11.606Z,1.97
2018-09-19T09:06:47.616Z,2.27
2018-09-19T09:09:23.609Z,1.50
2018-09-19T09:12:00.436Z,1.42
2018-09-19T09:14:36.425Z,1.40
2018-09-19T09:17:12.050Z,2.10
2018-09-19T09:19:48.470Z,2.35
2018-09-19T09:22:24.622Z,2.53
2018-09-19T09:25:00.503Z,2.30
2018-09-19T09:27:37.299Z,2.20
2018-09-19T09:30:13.803Z,2.12
2018-09-19T09:32:49.798Z,3.40
2018-09-19T09:35:25.597Z,3.22
2018-09-19T09:38:01.811Z,2.40
2018-09-19T09:40:37.871Z,3.67
2018-09-19T09:43:14.246Z,5.83
2018-09-19T09:48:23.810Z,2.60
2018-09-19T09:50:59.523Z,2.40
2018-09-19T09:53:35.645Z,2.52
2018-09-19T09:56:11.618Z,2.45
2018-09-19T09:58:47.513Z,1.67
2018-09-19T10:01:23.517Z,2.00
2018-09-19T10:03:59.633Z,2.02
2018-09-19T10:06:35.533Z,1.82
2018-09-19T10:09:13.773Z,2.62
2018-09-19T10:11:49.986Z,1.75
2018-09-19T10:14:26.452Z,2.45
2018-09-19T10:17:02.646Z,2.65
2018-09-19T10:19:39.258Z,2.67
2018-09-19T10:22:15.325Z,1.72
2018-09-19T10:24:51.304Z,1.90
2018-09-19T10:27:27.269Z,1.93
2018-09-19T10:30:03.864Z,1.75
2018-09-19T10:32:39.633Z,2.50
2018-09-19T10:35:15.661Z,2.42
2018-09-19T10:37:51.657Z,3.30
2018-09-19T10:40:27.601Z,2.87
2018-09-19T10:43:03.830Z,2.20
2018-09-19T10:45:39.655Z,2.00
2018-09-19T10:48:15.825Z,3.12
2018-09-19T10:50:51.538Z,2.90
2018-09-19T10:53:27.502Z,1.50
2018-09-19T10:56:03.619Z,2.13
2018-09-19T10:58:39.650Z,2.25
2018-09-19T11:01:15.996Z,2.43
2018-09-19T11:03:51.994Z,2.45
2018-09-19T11:06:27.830Z,2.80
2018-09-19T11:09:04.011Z,2.25
2018-09-19T11:11:40.465Z,3.35
2018-09-19T11:14:16.273Z,2.08
2018-09-19T11:16:52.414Z,3.72
2018-09-19T11:19:28.438Z,2.67
2018-09-19T11:22:04.894Z,2.45
2018-09-19T11:24:40.830Z,3.90
2018-09-19T11:27:16.826Z,3.37
2018-09-19T11:29:52.833Z,6.20
2018-09-19T11:32:28.494Z,2.30
2018-09-19T11:35:04.592Z,2.85
2018-09-19T11:37:40.642Z,2.67
2018-09-19T11:40:16.485Z,3.70
2018-09-19T11:42:52.567Z,1.70
2018-09-19T11:45:28.617Z,1.80
2018-09-19T11:48:04.574Z,1.47
2018-09-19T11:50:40.605Z,2.50
2018-09-19T11:53:20.796Z,2.90
2018-09-19T11:55:56.671Z,1.80
2018-09-19T11:58:33.013Z,2.70
2018-09-19T12:01:09.673Z,1.67
2018-09-19T12:03:45.670Z,2.87
2018-09-19T12:06:21.674Z,3.92
2018-09-19T12:08:57.665Z,3.67
2018-09-19T12:11:33.594Z,1.60
2018-09-19T12:14:09.697Z,2.27
2018-09-19T12:16:45.685Z,2.37
2018-09-19T12:19:21.738Z,2.60
2018-09-19T12:21:57.657Z,2.30
2018-09-19T12:24:33.961Z,2.55
2018-09-19T12:27:09.863Z,1.70
2018-09-19T12:29:46.425Z,3.17
2018-09-19T12:32:22.709Z,2.98
2018-09-19T12:34:58.526Z,1.93
2018-09-19T12:37:34.613Z,2.22
2018-09-19T12:40:10.870Z,2.57
2018-09-19T12:42:46.659Z,2.40
2018-09-19T12:45:22.878Z,3.03
2018-09-19T12:47:59.638Z,3.00
2018-09-19T12:50:35.917Z,2.37
2018-09-19T12:53:11.702Z,1.60
2018-09-19T12:55:48.022Z,3.27
2018-09-19T12:58:24.055Z,3.10
2018-09-19T13:01:00.305Z,2.43
2018-09-19T13:03:36.465Z,1.60
2018-09-19T13:06:13.494Z,1.40
2018-09-19T13:08:51.009Z,2.40
2018-09-19T13:11:27.373Z,2.90
2018-09-19T13:14:03.323Z,2.83
2018-09-19T13:16:39.318Z,3.47
2018-09-19T13:19:15.330Z,3.60
2018-09-19T13:21:51.319Z,3.33
2018-09-19T13:24:27.319Z,2.52
2018-09-19T13:27:03.358Z,3.65
2018-09-19T13:29:39.535Z,1.50
2018-09-19T13:32:15.605Z,2.60
2018-09-19T13:34:51.689Z,2.57
2018-09-19T13:37:27.710Z,2.25
2018-09-19T13:40:03.987Z,2.62
2018-09-19T13:42:40.655Z,1.50
2018-09-19T13:45:16.702Z,2.12
2018-09-19T13:47:52.903Z,1.92
2018-09-19T13:50:54.714Z,2.35
2018-09-19T13:53:30.886Z,3.25
2018-09-19T13:56:07.374Z,2.27
2018-09-19T13:58:43.499Z,2.62
2018-09-19T14:01:19.897Z,2.67
2018-09-19T14:03:55.889Z,2.62
2018-09-19T14:06:31.911Z,2.05
2018-09-19T14:09:10.005Z,1.97
2018-09-19T14:11:45.746Z,2.23
2018-09-19T14:14:21.725Z,2.00
2018-09-19T14:16:57.611Z,1.97
2018-09-19T14:19:33.555Z,2.00
2018-09-19T14:22:09.702Z,6.22
2018-09-19T14:24:45.725Z,4.65
2018-09-19T14:27:21.635Z,5.30
2018-09-19T14:29:57.530Z,7.93
2018-09-19T14:32:33.638Z,7.22
2018-09-19T14:35:09.898Z,3.30
2018-09-19T14:37:45.901Z,4.78
2018-09-19T14:40:21.735Z,6.60
2018-09-19T14:42:57.918Z,8.58
2018-09-19T14:45:34.019Z,9.60
2018-09-19T14:48:10.131Z,4.22
2018-09-19T14:50:46.434Z,6.75
2018-09-19T14:53:22.623Z,5.43
2018-09-19T14:55:58.920Z,4.67
2018-09-19T14:58:35.116Z,5.80
2018-09-19T15:01:11.341Z,5.28
2018-09-19T15:03:47.349Z,5.37
2018-09-19T15:06:22.899Z,5.72
2018-09-19T15:08:58.567Z,6.37
2018-09-19T15:11:34.900Z,9.95
2018-09-19T15:14:10.682Z,8.20
2018-09-19T15:16:46.713Z,6.67
2018-09-19T15:19:22.605Z,6.60
2018-09-19T15:21:58.744Z,6.90
2018-09-19T15:24:34.691Z,6.20
2018-09-19T15:27:11.115Z,5.83
2018-09-19T15:29:47.695Z,5.43
2018-09-19T15:32:24.449Z,7.50
2018-09-19T15:35:00.736Z,5.65
2018-09-19T15:37:36.581Z,7.10
2018-09-19T15:40:12.553Z,6.03
2018-09-19T15:42:48.338Z,5.37
2018-09-19T15:45:24.637Z,4.60
2018-09-19T15:48:00.744Z,4.72
2018-09-19T15:50:36.941Z,5.00
2018-09-19T15:53:12.781Z,4.28
2018-09-19T15:55:48.740Z,13.80
2018-09-19T15:58:24.922Z,6.80
2018-09-19T16:01:01.190Z,10.30
2018-09-19T16:03:37.933Z,9.78
2018-09-19T16:06:13.980Z,7.93
2018-09-19T16:08:49.946Z,7.87
2018-09-19T16:11:25.936Z,6.33
2018-09-19T16:14:02.001Z,5.67
2018-09-19T16:16:37.551Z,9.90
2018-09-19T16:19:13.149Z,10.40
2018-09-19T16:21:48.762Z,9.33
2018-09-19T16:24:24.467Z,9.25
2018-09-19T16:27:00.121Z,7.42
2018-09-19T16:29:35.760Z,5.57
2018-09-19T16:32:11.154Z,7.90
2018-09-19T16:34:46.702Z,5.37
2018-09-19T16:37:22.381Z,7.60
2018-09-19T16:39:57.942Z,6.58
2018-09-19T16:42:33.679Z,6.87
2018-09-19T16:45:08.943Z,6.43
2018-09-19T16:47:44.624Z,5.77
2018-09-19T16:50:20.462Z,6.62
2018-09-19T16:52:56.698Z,9.65
2018-09-19T16:55:32.642Z,7.05
2018-09-19T16:58:08.781Z,20.68
2018-09-19T17:00:44.777Z,36.75
2018-09-19T17:03:20.416Z,19.80
2018-09-19T17:05:56.586Z,12.37
2018-09-19T17:08:31.973Z,12.10
2018-09-19T17:11:07.495Z,9.63
2018-09-19T17:13:42.751Z,8.50
2018-09-19T17:16:18.757Z,10.50
2018-09-19T17:18:54.409Z,6.80
2018-09-19T17:21:30.572Z,7.27
2018-09-19T17:24:05.998Z,6.67
2018-09-19T17:26:41.677Z,6.10
2018-09-19T17:29:17.224Z,6.23
2018-09-19T17:31:52.946Z,7.47
2018-09-19T17:34:29.955Z,6.03
2018-09-19T17:37:05.692Z,7.10
2018-09-19T17:39:41.696Z,4.47
2018-09-19T17:42:17.513Z,6.43
2018-09-19T17:44:53.282Z,6.55
2018-09-19T17:47:28.909Z,5.50
2018-09-19T17:50:04.819Z,4.53
2018-09-19T17:52:40.804Z,5.25
2018-09-19T17:55:16.610Z,5.17
2018-09-19T17:57:52.750Z,3.45
2018-09-19T18:00:28.709Z,3.70
2018-09-19T18:03:04.718Z,4.75
2018-09-19T18:05:41.325Z,5.43
2018-09-19T18:08:17.625Z,4.65
2018-09-19T18:10:53.684Z,5.05
2018-09-19T18:13:29.711Z,4.40
2018-09-19T18:16:05.798Z,5.17
2018-09-19T18:18:41.721Z,5.77
2018-09-19T18:21:17.795Z,3.67
2018-09-19T18:23:54.358Z,4.22
2018-09-19T18:26:29.774Z,4.00
2018-09-19T18:29:05.707Z,4.73
2018-09-19T18:31:41.697Z,5.60
2018-09-19T18:34:18.018Z,4.35
2018-09-19T18:36:53.777Z,5.35
2018-09-19T18:39:29.712Z,4.45
2018-09-19T18:42:05.787Z,5.15
2018-09-19T18:44:41.926Z,4.25
2018-09-19T18:47:17.684Z,5.15
2018-09-19T18:49:54.260Z,7.15
2018-09-19T18:52:30.624Z,6.72
2018-09-19T18:55:06.801Z,6.55
2018-09-19T18:57:42.610Z,6.53
2018-09-19T19:00:18.807Z,6.45
2018-09-19T19:02:54.983Z,7.83
2018-09-19T19:05:30.989Z,5.53
2018-09-19T19:08:06.990Z,6.20
2018-09-19T19:10:42.987Z,4.28
2018-09-19T19:13:19.323Z,7.17
2018-09-19T19:15:55.464Z,10.43
2018-09-19T19:18:31.818Z,6.85
2018-09-19T19:21:07.813Z,7.83
2018-09-19T19:23:43.990Z,7.28
2018-09-19T19:26:19.993Z,6.57
2018-09-19T19:28:55.991Z,7.00
2018-09-19T19:31:32.214Z,6.85
2018-09-19T19:34:08.183Z,9.93
2018-09-19T19:36:44.197Z,7.23
2018-09-19T19:39:19.990Z,5.45
2018-09-19T19:41:55.944Z,6.85
2018-09-19T19:44:32.572Z,7.35
2018-09-19T19:47:08.622Z,5.40
2018-09-19T19:49:44.801Z,6.25
2018-09-19T19:52:20.829Z,5.35
2018-09-19T19:54:56.821Z,5.40
2018-09-19T19:57:32.644Z,6.28
2018-09-19T20:00:08.833Z,5.13
2018-09-19T20:02:44.871Z,5.08
2018-09-19T20:05:20.953Z,5.85
2018-09-19T20:07:56.858Z,7.20
2018-09-19T20:10:32.689Z,5.35
2018-09-19T20:13:09.539Z,8.30
2018-09-19T20:18:43.806Z,6.40
2018-09-19T20:21:20.242Z,7.17
2018-09-19T20:23:56.621Z,6.50
2018-09-19T20:26:32.622Z,4.70
2018-09-19T20:29:08.848Z,4.37
2018-09-19T20:31:44.822Z,4.12
2018-09-19T20:34:20.940Z,5.67
2018-09-19T20:36:57.575Z,3.40
2018-09-19T20:39:33.683Z,3.12
2018-09-19T20:42:09.674Z,2.52
2018-09-19T20:44:45.837Z,4.12
2018-09-19T20:47:21.689Z,3.75
2018-09-19T20:49:57.843Z,2.85
2018-09-19T20:52:34.021Z,2.98
2018-09-19T20:55:09.953Z,2.95
2018-09-19T20:57:45.842Z,3.50
2018-09-19T21:00:21.672Z,2.77
2018-09-19T21:02:57.830Z,4.00
2018-09-19T21:05:34.124Z,3.50
2018-09-19T21:08:10.026Z,7.00
2018-09-19T21:10:46.129Z,2.42
2018-09-19T21:13:22.193Z,2.23
2018-09-19T21:15:58.251Z,9.18
2018-09-19T21:18:33.877Z,2.95
2018-09-19T21:21:09.497Z,2.40
2018-09-19T21:23:45.029Z,2.33
2018-09-19T21:26:20.301Z,3.50
2018-09-19T21:28:55.896Z,3.02
2018-09-19T21:31:31.515Z,2.40
2018-09-19T21:34:07.231Z,2.58
2018-09-19T21:36:42.862Z,3.70
2018-09-19T21:39:18.601Z,2.55
2018-09-19T21:41:54.185Z,3.10
2018-09-19T21:44:29.786Z,3.23
2018-09-19T21:47:05.044Z,3.07
2018-09-19T21:49:40.345Z,2.87
2018-09-19T21:52:15.865Z,3.42
2018-09-19T21:54:51.239Z,3.27
2018-09-19T21:57:27.215Z,2.60
2018-09-19T22:00:02.732Z,2.30
2018-09-19T22:03:44.407Z,2.40
2018-09-19T22:08:53.329Z,2.17
2018-09-19T22:11:28.801Z,3.03
2018-09-19T22:14:04.253Z,3.00
2018-09-19T22:16:39.877Z,2.33
2018-09-19T22:19:15.374Z,2.05
2018-09-19T22:21:51.044Z,2.52
2018-09-19T22:24:26.228Z,1.93
2018-09-19T22:27:02.050Z,3.63
2018-09-19T22:29:37.617Z,2.30
2018-09-19T22:32:13.226Z,3.10
2018-09-19T22:34:48.575Z,2.47
2018-09-19T22:37:25.055Z,2.22
2018-09-19T22:40:00.252Z,3.50
2018-09-19T22:42:35.784Z,2.50
2018-09-19T22:45:11.235Z,2.60
2018-09-19T22:47:47.274Z,2.00
2018-09-19T22:50:23.117Z,3.83
2018-09-19T22:52:58.607Z,4.80
2018-09-19T22:55:33.878Z,2.13
2018-09-19T22:58:09.306Z,2.73
2018-09-19T23:00:44.892Z,2.30
2018-09-19T23:03:21.073Z,2.70
2018-09-19T23:05:56.682Z,3.35
2018-09-19T23:08:32.702Z,3.00
2018-09-19T23:11:08.917Z,2.10
2018-09-19T23:13:45.062Z,2.60
2018-09-19T23:16:20.902Z,2.90
2018-09-19T23:18:56.794Z,2.67
2018-09-19T23:21:32.744Z,2.47
2018-09-19T23:24:08.557Z,2.50
2018-09-19T23:26:44.702Z,3.00
2018-09-19T23:29:21.163Z,2.70
2018-09-19T23:31:57.094Z,3.20
2018-09-19T23:34:33.654Z,3.35
2018-09-19T23:37:09.717Z,3.25
2018-09-19T23:39:45.874Z,3.30
2018-09-19T23:42:21.882Z,2.92
2018-09-19T23:44:59.058Z,2.58
2018-09-19T23:47:36.238Z,2.30
2018-09-19T23:50:12.271Z,3.43
2018-09-19T23:52:48.246Z,4.10
2018-09-19T23:55:24.902Z,2.70
2018-09-19T23:58:01.239Z,2.35
